Meteo Giornale » Osservazioni meteo Stati Uniti (USA) » Mackall
ore: 16:55 - Osservazioni Meteo Mackall
Lat. 35° 2' N Lon. 79° 30' W Alt. 115 metri s.l.m.
33 °C
Sereno
Temp. 24 Ore
21 °C
34 °C
Nord
5.5 Km/h
Dew point 20 °C
Umidità 46 %
Visibilità 10 Km
Il sole sorge alle ore 06:50
Il sole tramonta alle ore 19:46
| Data e Ora | Cielo e Fenomeni | T °C | DP °C | Um. % | Pres. hPa | Vis. km | Vento km/h | |
|---|---|---|---|---|---|---|---|---|
| Oggi h: 16:55 | Sereno | 33 | 20 | 46 | 1017 | 10 | N 5.5 | |
| Oggi h: 16:46 | Sereno | 33 | 20 | 46 | 1017 | 10 | O/NO 7.4 | |
| Oggi h: 15:55 | Sereno | 34 | 19 | 41 | 1017 | 10 | N 0 | |
| Oggi h: 15:28 | Sereno | 34 | 19 | 41 | 1017 | 10 | E/NE 7.4 | |
| Oggi h: 14:55 | Sereno | 34 | 21 | 46 | 1018 | 10 | N 0 | |
| Oggi h: 13:55 | Sereno | 32 | 20 | 49 | 1018 | 10 | N 0 | |
| Oggi h: 13:51 | Sereno | 32 | 20 | 49 | 1018 | 10 | N 0 | |
| Oggi h: 12:55 | Sereno | 32 | 21 | 52 | 1019 | 10 | N 0 | |
| Oggi h: 12:20 | Poco Nuvoloso | 31 | 22 | 58 | 1019 | 10 | N 5.5 | |
| Oggi h: 11:55 | Sereno | 31 | 22 | 58 | 1020 | 10 | E/NE 7.4 | |
| Oggi h: 10:55 | Sereno | 29 | 22 | 66 | 1020 | 10 | N 5.5 | |
| Oggi h: 10:35 | Sereno | 30 | 24 | 70 | 1020 | 10 | N 11.1 | |
| Oggi h: 09:55 | Sereno | 27 | 24 | 83 | 1019 | 10 | N 5.5 | |
| Oggi h: 09:11 | Nuvoloso | 24 | 24 | 100 | 1019 | 10 | N 0 | |
| Oggi h: 09:01 | Foschia | 23 | 23 | 100 | 1019 | 6 | N 5.5 | |
| Oggi h: 08:55 | Foschia | 23 | 23 | 100 | 1019 | 11 | N 5.5 | |
| Oggi h: 08:54 | Foschia | 23 | 23 | 100 | 1019 | 8 | N 5.5 | |
| Oggi h: 08:49 | Foschia | 23 | 22 | 94 | 1019 | 5 | N 5.5 | |
| Oggi h: 08:43 | Nebbia | 22 | 22 | 100 | 1019 | 2 | N 0 | |
| Oggi h: 07:55 | Nebbia | 21 | 21 | 100 | 1019 | 5 | N 0 | |
| Oggi h: 07:53 | Nebbia | 21 | 21 | 100 | 1019 | 5 | N 0 | |
| Oggi h: 07:35 | Nebbia | 21 | 21 | 100 | 1019 | 2 | N 0 | |
| Oggi h: 07:29 | Foschia | 21 | 21 | 100 | 1019 | 2 | N 0 | |
| Oggi h: 07:24 | Foschia | 21 | 21 | 100 | 1019 | 5 | N 0 | |
| Oggi h: 07:18 | Foschia | 21 | 21 | 100 | 1019 | 2 | N 0 | |
| Oggi h: 07:13 | Foschia | 21 | 21 | 100 | 1019 | 8 | N 0 | |
| Oggi h: 07:07 | Nebbia | 21 | 21 | 100 | 1019 | 5 | N 0 | |
| Oggi h: 07:01 | Nebbia | 21 | 21 | 100 | 1019 | 2 | N 0 | |
| Oggi h: 06:55 | Nebbia | 21 | 21 | 100 | 1019 | 2 | N 0 | |
| Oggi h: 06:37 | Nebbia | 21 | 21 | 100 | 1019 | 2 | N 0 | |
| Oggi h: 06:25 | Foschia | 21 | 21 | 100 | 1019 | 8 | N 0 | |
| Oggi h: 06:19 | Nebbia | 21 | 21 | 100 | 1019 | 5 | N 0 | |
| Oggi h: 05:55 | Nebbia | 21 | 21 | 100 | 1019 | 2 | N 0 | |
| Oggi h: 04:55 | Nebbia | 21 | 21 | 100 | 1019 | 2 | N 0 | |
| Oggi h: 04:49 | Nebbia | 21 | 21 | 100 | 1019 | 2 | N 0 | |
| Oggi h: 04:37 | Nebbia | 21 | 21 | 100 | 1019 | 5 | N 0 | |
| Oggi h: 04:25 | Nebbia | 21 | 21 | 100 | 1019 | 2 | N 0 | |
| Oggi h: 04:13 | Nebbia | 21 | 21 | 100 | 1019 | 2 | N 0 | |
| Oggi h: 03:55 | Nebbia | 22 | 21 | 94 | 1019 | 5 | N 0 | |
| Oggi h: 03:42 | Nebbia | 22 | 21 | 94 | 1019 | 5 | N 0 | |
| Oggi h: 03:24 | Foschia | 22 | 21 | 94 | 1019 | 8 | N 5.5 | |
| Oggi h: 03:19 | Foschia | 22 | 21 | 94 | 1019 | 3 | N 5.5 | |
| Oggi h: 02:55 | Molto Nuvoloso | 22 | 21 | 94 | 1019 | 14 | N 0 | |
| Oggi h: 02:22 | Molto Nuvoloso | 22 | 22 | 100 | 1019 | 13 | N 0 | |
| Oggi h: 02:12 | Poco Nuvoloso | 22 | 22 | 100 | 1019 | 14 | N 0 | |
| Oggi h: 01:55 | Sereno | 22 | 22 | 100 | 1019 | 10 | N 0 | |
| Oggi h: 00:55 | Sereno | 22 | 22 | 100 | 1019 | 10 | N 0 | |
| Ieri h: 23:55 | Sereno | 23 | 22 | 94 | 1019 | 10 | N 0 | |
| Ieri h: 22:55 | Sereno | 24 | 23 | 94 | 1019 | 10 | N 0 | |
| Ieri h: 21:55 | Sereno | 24 | 23 | 94 | 1019 | 10 | N 5.5 | |
| Ieri h: 21:20 | Sereno | 25 | 23 | 88 | 1019 | 10 | N 0 | |
| Ieri h: 20:55 | Sereno | 25 | 24 | 94 | 1019 | 10 | N 0 | |
| Ieri h: 19:55 | Sereno | 28 | 24 | 78 | 1019 | 10 | N 5.5 | |
| Ieri h: 18:55 | Sereno | 29 | 22 | 66 | 1019 | 10 | E 7.4 | |
| Ieri h: 17:55 | Sereno | 29 | 22 | 66 | 1019 | 10 | N 5.5 | |



